sensor_id;sensor_type;location;lat;lon;timestamp;P1;durP1;ratioP1;P2;durP2;ratioP2
21643;SDS011;10983;51.982;9.226;2024-01-15T00:01:53;9.88;;;8.85;;
21643;SDS011;10983;51.982;9.226;2024-01-15T00:04:21;9.07;;;7.72;;
21643;SDS011;10983;51.982;9.226;2024-01-15T00:06:49;9.95;;;8.02;;
21643;SDS011;10983;51.982;9.226;2024-01-15T00:09:17;13.82;;;12.25;;
21643;SDS011;10983;51.982;9.226;2024-01-15T00:11:44;11.60;;;8.95;;
21643;SDS011;10983;51.982;9.226;2024-01-15T00:14:12;13.80;;;10.15;;
21643;SDS011;10983;51.982;9.226;2024-01-15T00:16:42;17.02;;;11.80;;
21643;SDS011;10983;51.982;9.226;2024-01-15T00:19:09;14.35;;;9.48;;
21643;SDS011;10983;51.982;9.226;2024-01-15T00:21:37;7.85;;;6.57;;
21643;SDS011;10983;51.982;9.226;2024-01-15T00:24:04;5.25;;;3.88;;
21643;SDS011;10983;51.982;9.226;2024-01-15T00:26:32;7.65;;;5.03;;
21643;SDS011;10983;51.982;9.226;2024-01-15T00:28:59;11.70;;;7.88;;
21643;SDS011;10983;51.982;9.226;2024-01-15T00:31:27;12.07;;;9.05;;
21643;SDS011;10983;51.982;9.226;2024-01-15T00:33:57;10.65;;;6.55;;
21643;SDS011;10983;51.982;9.226;2024-01-15T00:36:25;9.50;;;6.13;;
21643;SDS011;10983;51.982;9.226;2024-01-15T00:38:53;6.38;;;5.50;;
21643;SDS011;10983;51.982;9.226;2024-01-15T00:41:20;15.60;;;8.85;;
21643;SDS011;10983;51.982;9.226;2024-01-15T00:43:48;3.47;;;3.10;;
21643;SDS011;10983;51.982;9.226;2024-01-15T00:46:16;5.05;;;4.05;;
21643;SDS011;10983;51.982;9.226;2024-01-15T00:48:43;7.38;;;5.20;;
21643;SDS011;10983;51.982;9.226;2024-01-15T00:51:12;9.95;;;6.57;;
21643;SDS011;10983;51.982;9.226;2024-01-15T00:53:40;9.38;;;6.88;;
21643;SDS011;10983;51.982;9.226;2024-01-15T00:56:07;2.67;;;2.45;;
21643;SDS011;10983;51.982;9.226;2024-01-15T00:58:35;11.10;;;6.47;;
21643;SDS011;10983;51.982;9.226;2024-01-15T01:01:02;2.13;;;1.95;;
21643;SDS011;10983;51.982;9.226;2024-01-15T01:03:30;8.57;;;7.30;;
21643;SDS011;10983;51.982;9.226;2024-01-15T01:05:58;8.65;;;2.83;;
21643;SDS011;10983;51.982;9.226;2024-01-15T01:08:27;11.95;;;7.82;;
21643;SDS011;10983;51.982;9.226;2024-01-15T01:10:55;11.43;;;7.70;;
21643;SDS011;10983;51.982;9.226;2024-01-15T01:13:22;9.73;;;6.38;;
21643;SDS011;10983;51.982;9.226;2024-01-15T01:15:50;5.95;;;4.55;;
21643;SDS011;10983;51.982;9.226;2024-01-15T01:18:17;11.68;;;7.65;;
21643;SDS011;10983;51.982;9.226;2024-01-15T01:20:45;10.52;;;8.23;;
21643;SDS011;10983;51.982;9.226;2024-01-15T01:23:13;9.23;;;6.53;;
21643;SDS011;10983;51.982;9.226;2024-01-15T01:25:42;5.18;;;3.85;;
21643;SDS011;10983;51.982;9.226;2024-01-15T01:28:12;6.05;;;4.85;;
21643;SDS011;10983;51.982;9.226;2024-01-15T01:30:39;8.38;;;6.32;;
21643;SDS011;10983;51.982;9.226;2024-01-15T01:33:07;6.40;;;4.07;;
21643;SDS011;10983;51.982;9.226;2024-01-15T01:35:35;8.07;;;6.13;;
21643;SDS011;10983;51.982;9.226;2024-01-15T01:38:02;7.53;;;5.28;;
21643;SDS011;10983;51.982;9.226;2024-01-15T01:40:30;4.80;;;4.40;;
21643;SDS011;10983;51.982;9.226;2024-01-15T01:42:58;7.53;;;4.32;;
21643;SDS011;10983;51.982;9.226;2024-01-15T01:45:26;10.35;;;3.22;;
21643;SDS011;10983;51.982;9.226;2024-01-15T01:47:54;5.80;;;5.07;;
21643;SDS011;10983;51.982;9.226;2024-01-15T01:50:21;6.97;;;4.38;;
21643;SDS011;10983;51.982;9.226;2024-01-15T01:52:49;3.33;;;3.03;;
21643;SDS011;10983;51.982;9.226;2024-01-15T01:55:17;4.35;;;3.30;;
21643;SDS011;10983;51.982;9.226;2024-01-15T01:57:46;4.30;;;2.47;;
21643;SDS011;10983;51.982;9.226;2024-01-15T02:00:15;8.52;;;4.55;;
21643;SDS011;10983;51.982;9.226;2024-01-15T02:02:43;10.57;;;5.03;;
21643;SDS011;10983;51.982;9.226;2024-01-15T02:05:11;5.65;;;4.20;;
21643;SDS011;10983;51.982;9.226;2024-01-15T02:07:42;4.57;;;2.65;;
21643;SDS011;10983;51.982;9.226;2024-01-15T02:10:11;8.88;;;4.30;;
21643;SDS011;10983;51.982;9.226;2024-01-15T02:12:38;7.18;;;3.33;;
21643;SDS011;10983;51.982;9.226;2024-01-15T02:15:06;8.25;;;3.28;;
21643;SDS011;10983;51.982;9.226;2024-01-15T02:17:36;3.97;;;2.75;;
21643;SDS011;10983;51.982;9.226;2024-01-15T02:20:24;8.15;;;4.07;;
21643;SDS011;10983;51.982;9.226;2024-01-15T02:22:52;5.68;;;3.72;;
21643;SDS011;10983;51.982;9.226;2024-01-15T02:25:21;6.15;;;4.07;;
21643;SDS011;10983;51.982;9.226;2024-01-15T02:27:49;5.18;;;4.00;;
21643;SDS011;10983;51.982;9.226;2024-01-15T02:30:16;2.78;;;2.58;;
21643;SDS011;10983;51.982;9.226;2024-01-15T02:32:44;3.65;;;2.85;;
21643;SDS011;10983;51.982;9.226;2024-01-15T02:35:12;8.70;;;5.47;;
21643;SDS011;10983;51.982;9.226;2024-01-15T02:37:40;7.45;;;4.25;;
21643;SDS011;10983;51.982;9.226;2024-01-15T02:40:08;2.28;;;2.08;;
21643;SDS011;10983;51.982;9.226;2024-01-15T02:42:37;3.10;;;1.95;;
21643;SDS011;10983;51.982;9.226;2024-01-15T02:45:04;5.88;;;3.78;;
21643;SDS011;10983;51.982;9.226;2024-01-15T02:47:32;3.70;;;1.98;;
21643;SDS011;10983;51.982;9.226;2024-01-15T02:50:00;3.70;;;2.40;;
21643;SDS011;10983;51.982;9.226;2024-01-15T02:52:27;2.13;;;1.95;;
21643;SDS011;10983;51.982;9.226;2024-01-15T02:54:55;19.67;;;4.03;;
21643;SDS011;10983;51.982;9.226;2024-01-15T02:57:22;3.20;;;2.88;;
21643;SDS011;10983;51.982;9.226;2024-01-15T02:59:51;5.75;;;4.38;;
21643;SDS011;10983;51.982;9.226;2024-01-15T03:02:18;3.50;;;3.20;;
21643;SDS011;10983;51.982;9.226;2024-01-15T03:04:46;9.90;;;4.00;;
21643;SDS011;10983;51.982;9.226;2024-01-15T03:07:13;3.13;;;2.30;;
21643;SDS011;10983;51.982;9.226;2024-01-15T03:09:41;15.70;;;2.88;;
21643;SDS011;10983;51.982;9.226;2024-01-15T03:12:09;2.85;;;2.65;;
21643;SDS011;10983;51.982;9.226;2024-01-15T03:14:37;8.63;;;4.50;;
21643;SDS011;10983;51.982;9.226;2024-01-15T03:17:08;4.22;;;3.67;;
21643;SDS011;10983;51.982;9.226;2024-01-15T03:19:37;6.72;;;3.17;;
21643;SDS011;10983;51.982;9.226;2024-01-15T03:22:05;12.07;;;3.30;;
21643;SDS011;10983;51.982;9.226;2024-01-15T03:24:34;7.03;;;3.58;;
21643;SDS011;10983;51.982;9.226;2024-01-15T03:27:02;10.73;;;4.70;;
21643;SDS011;10983;51.982;9.226;2024-01-15T03:29:30;5.93;;;3.25;;
21643;SDS011;10983;51.982;9.226;2024-01-15T03:31:58;6.88;;;3.67;;
21643;SDS011;10983;51.982;9.226;2024-01-15T03:34:26;10.13;;;4.50;;
21643;SDS011;10983;51.982;9.226;2024-01-15T03:36:54;4.35;;;2.67;;
21643;SDS011;10983;51.982;9.226;2024-01-15T03:39:21;2.35;;;1.98;;
21643;SDS011;10983;51.982;9.226;2024-01-15T03:41:49;1.48;;;1.38;;
21643;SDS011;10983;51.982;9.226;2024-01-15T03:44:16;2.00;;;1.60;;
21643;SDS011;10983;51.982;9.226;2024-01-15T03:46:44;2.60;;;2.13;;
21643;SDS011;10983;51.982;9.226;2024-01-15T03:49:11;2.50;;;2.33;;
21643;SDS011;10983;51.982;9.226;2024-01-15T03:51:40;3.10;;;2.75;;
21643;SDS011;10983;51.982;9.226;2024-01-15T03:54:08;18.20;;;4.95;;
21643;SDS011;10983;51.982;9.226;2024-01-15T03:56:35;2.70;;;1.55;;
21643;SDS011;10983;51.982;9.226;2024-01-15T03:59:03;4.22;;;3.28;;
21643;SDS011;10983;51.982;9.226;2024-01-15T04:01:30;5.18;;;3.03;;
21643;SDS011;10983;51.982;9.226;2024-01-15T04:03:58;6.30;;;4.28;;
21643;SDS011;10983;51.982;9.226;2024-01-15T04:06:25;14.70;;;4.57;;
21643;SDS011;10983;51.982;9.226;2024-01-15T04:08:55;1.38;;;1.27;;
21643;SDS011;10983;51.982;9.226;2024-01-15T04:11:22;6.97;;;3.70;;
21643;SDS011;10983;51.982;9.226;2024-01-15T04:13:50;1.40;;;1.30;;
21643;SDS011;10983;51.982;9.226;2024-01-15T04:16:17;22.02;;;6.05;;
21643;SDS011;10983;51.982;9.226;2024-01-15T04:18:45;4.93;;;3.42;;
21643;SDS011;10983;51.982;9.226;2024-01-15T04:21:12;8.98;;;3.95;;
21643;SDS011;10983;51.982;9.226;2024-01-15T04:23:40;8.25;;;5.40;;
21643;SDS011;10983;51.982;9.226;2024-01-15T04:26:09;8.07;;;5.25;;
21643;SDS011;10983;51.982;9.226;2024-01-15T04:28:36;9.50;;;5.95;;
21643;SDS011;10983;51.982;9.226;2024-01-15T04:31:03;7.28;;;3.60;;
21643;SDS011;10983;51.982;9.226;2024-01-15T04:33:31;5.60;;;2.90;;
21643;SDS011;10983;51.982;9.226;2024-01-15T04:36:01;14.10;;;4.55;;
21643;SDS011;10983;51.982;9.226;2024-01-15T04:38:29;10.10;;;3.85;;
21643;SDS011;10983;51.982;9.226;2024-01-15T04:40:56;15.98;;;6.32;;
21643;SDS011;10983;51.982;9.226;2024-01-15T04:43:25;2.47;;;2.28;;
21643;SDS011;10983;51.982;9.226;2024-01-15T04:45:52;5.35;;;3.90;;
21643;SDS011;10983;51.982;9.226;2024-01-15T04:48:20;7.18;;;3.72;;
21643;SDS011;10983;51.982;9.226;2024-01-15T04:50:49;7.20;;;5.22;;
21643;SDS011;10983;51.982;9.226;2024-01-15T04:53:17;3.95;;;3.10;;
21643;SDS011;10983;51.982;9.226;2024-01-15T04:55:46;11.30;;;5.55;;
21643;SDS011;10983;51.982;9.226;2024-01-15T04:58:13;7.78;;;3.60;;
21643;SDS011;10983;51.982;9.226;2024-01-15T05:00:42;9.85;;;5.43;;
21643;SDS011;10983;51.982;9.226;2024-01-15T05:03:10;5.07;;;3.22;;
21643;SDS011;10983;51.982;9.226;2024-01-15T05:05:37;7.88;;;3.38;;
21643;SDS011;10983;51.982;9.226;2024-01-15T05:08:05;8.60;;;4.90;;
21643;SDS011;10983;51.982;9.226;2024-01-15T05:10:32;4.57;;;2.45;;
21643;SDS011;10983;51.982;9.226;2024-01-15T05:13:00;19.73;;;5.85;;
21643;SDS011;10983;51.982;9.226;2024-01-15T05:15:27;2.65;;;2.38;;
21643;SDS011;10983;51.982;9.226;2024-01-15T05:17:57;1.60;;;1.50;;
21643;SDS011;10983;51.982;9.226;2024-01-15T05:20:24;22.45;;;3.85;;
21643;SDS011;10983;51.982;9.226;2024-01-15T05:22:52;6.47;;;4.10;;
21643;SDS011;10983;51.982;9.226;2024-01-15T05:25:19;2.60;;;2.08;;
21643;SDS011;10983;51.982;9.226;2024-01-15T05:27:47;10.98;;;4.18;;
21643;SDS011;10983;51.982;9.226;2024-01-15T05:30:14;6.65;;;5.38;;
21643;SDS011;10983;51.982;9.226;2024-01-15T05:32:43;3.95;;;2.63;;
21643;SDS011;10983;51.982;9.226;2024-01-15T05:35:11;10.43;;;3.67;;
21643;SDS011;10983;51.982;9.226;2024-01-15T05:40:09;6.40;;;3.17;;
21643;SDS011;10983;51.982;9.226;2024-01-15T05:42:37;9.25;;;5.57;;
21643;SDS011;10983;51.982;9.226;2024-01-15T05:45:05;3.92;;;3.10;;
21643;SDS011;10983;51.982;9.226;2024-01-15T05:47:35;8.07;;;4.05;;
21643;SDS011;10983;51.982;9.226;2024-01-15T05:50:03;4.38;;;3.53;;
21643;SDS011;10983;51.982;9.226;2024-01-15T05:52:33;1.95;;;1.85;;
21643;SDS011;10983;51.982;9.226;2024-01-15T05:55:00;10.40;;;4.22;;
21643;SDS011;10983;51.982;9.226;2024-01-15T05:57:28;7.18;;;4.75;;
21643;SDS011;10983;51.982;9.226;2024-01-15T05:59:55;6.97;;;4.32;;
21643;SDS011;10983;51.982;9.226;2024-01-15T06:02:23;5.75;;;3.42;;
21643;SDS011;10983;51.982;9.226;2024-01-15T06:04:50;5.72;;;4.40;;
21643;SDS011;10983;51.982;9.226;2024-01-15T06:07:18;13.13;;;5.63;;
21643;SDS011;10983;51.982;9.226;2024-01-15T06:09:47;5.97;;;3.65;;
21643;SDS011;10983;51.982;9.226;2024-01-15T06:12:14;7.75;;;3.50;;
21643;SDS011;10983;51.982;9.226;2024-01-15T06:14:42;5.75;;;3.30;;
21643;SDS011;10983;51.982;9.226;2024-01-15T06:17:09;4.32;;;2.55;;
21643;SDS011;10983;51.982;9.226;2024-01-15T06:19:37;10.52;;;6.47;;
21643;SDS011;10983;51.982;9.226;2024-01-15T06:22:03;3.10;;;2.75;;
21643;SDS011;10983;51.982;9.226;2024-01-15T06:24:31;5.00;;;4.05;;
21643;SDS011;10983;51.982;9.226;2024-01-15T06:27:00;9.30;;;8.02;;
21643;SDS011;10983;51.982;9.226;2024-01-15T06:29:27;5.32;;;3.05;;
21643;SDS011;10983;51.982;9.226;2024-01-15T06:31:55;4.45;;;4.05;;
21643;SDS011;10983;51.982;9.226;2024-01-15T06:34:22;6.63;;;4.18;;
21643;SDS011;10983;51.982;9.226;2024-01-15T06:36:50;5.03;;;3.53;;
21643;SDS011;10983;51.982;9.226;2024-01-15T06:39:18;5.13;;;4.63;;
21643;SDS011;10983;51.982;9.226;2024-01-15T06:41:45;3.15;;;2.75;;
21643;SDS011;10983;51.982;9.226;2024-01-15T06:44:14;9.18;;;4.18;;
21643;SDS011;10983;51.982;9.226;2024-01-15T06:46:42;8.52;;;3.53;;
21643;SDS011;10983;51.982;9.226;2024-01-15T06:49:09;10.70;;;5.18;;
21643;SDS011;10983;51.982;9.226;2024-01-15T06:51:38;8.43;;;4.03;;
21643;SDS011;10983;51.982;9.226;2024-01-15T06:54:06;3.83;;;3.50;;
21643;SDS011;10983;51.982;9.226;2024-01-15T06:56:33;3.97;;;3.58;;
21643;SDS011;10983;51.982;9.226;2024-01-15T06:59:01;4.60;;;3.45;;
21643;SDS011;10983;51.982;9.226;2024-01-15T07:01:30;4.10;;;3.03;;
21643;SDS011;10983;51.982;9.226;2024-01-15T07:03:57;8.57;;;4.28;;
21643;SDS011;10983;51.982;9.226;2024-01-15T07:06:25;10.02;;;5.15;;
21643;SDS011;10983;51.982;9.226;2024-01-15T07:08:53;7.63;;;3.58;;
21643;SDS011;10983;51.982;9.226;2024-01-15T07:11:20;8.32;;;5.85;;
21643;SDS011;10983;51.982;9.226;2024-01-15T07:13:48;5.32;;;3.83;;
21643;SDS011;10983;51.982;9.226;2024-01-15T07:16:15;20.52;;;4.28;;
21643;SDS011;10983;51.982;9.226;2024-01-15T07:19:03;8.23;;;4.40;;
21643;SDS011;10983;51.982;9.226;2024-01-15T07:21:31;7.68;;;4.53;;
21643;SDS011;10983;51.982;9.226;2024-01-15T07:23:58;4.45;;;4.05;;
21643;SDS011;10983;51.982;9.226;2024-01-15T07:26:26;5.20;;;2.80;;
21643;SDS011;10983;51.982;9.226;2024-01-15T07:28:53;1.65;;;1.55;;
21643;SDS011;10983;51.982;9.226;2024-01-15T07:31:22;9.90;;;5.05;;
21643;SDS011;10983;51.982;9.226;2024-01-15T07:33:50;6.90;;;4.35;;
21643;SDS011;10983;51.982;9.226;2024-01-15T07:36:19;4.82;;;3.78;;
21643;SDS011;10983;51.982;9.226;2024-01-15T07:38:47;5.90;;;3.60;;
21643;SDS011;10983;51.982;9.226;2024-01-15T07:41:14;17.55;;;4.00;;
21643;SDS011;10983;51.982;9.226;2024-01-15T07:43:42;9.55;;;4.43;;
21643;SDS011;10983;51.982;9.226;2024-01-15T07:46:09;10.75;;;3.63;;
21643;SDS011;10983;51.982;9.226;2024-01-15T07:48:37;7.05;;;5.13;;
21643;SDS011;10983;51.982;9.226;2024-01-15T07:51:05;8.25;;;4.80;;
21643;SDS011;10983;51.982;9.226;2024-01-15T07:53:34;2.97;;;2.72;;
21643;SDS011;10983;51.982;9.226;2024-01-15T07:56:02;3.75;;;3.40;;
21643;SDS011;10983;51.982;9.226;2024-01-15T07:58:30;4.28;;;3.95;;
21643;SDS011;10983;51.982;9.226;2024-01-15T08:00:57;6.13;;;5.47;;
21643;SDS011;10983;51.982;9.226;2024-01-15T08:03:25;5.47;;;4.38;;
21643;SDS011;10983;51.982;9.226;2024-01-15T08:05:52;4.18;;;2.30;;
21643;SDS011;10983;51.982;9.226;2024-01-15T08:08:21;3.45;;;3.17;;
21643;SDS011;10983;51.982;9.226;2024-01-15T08:10:50;6.25;;;3.65;;
21643;SDS011;10983;51.982;9.226;2024-01-15T08:13:18;6.18;;;4.97;;
21643;SDS011;10983;51.982;9.226;2024-01-15T08:15:46;3.55;;;3.10;;
21643;SDS011;10983;51.982;9.226;2024-01-15T08:18:14;2.90;;;2.45;;
21643;SDS011;10983;51.982;9.226;2024-01-15T08:20:42;5.80;;;3.70;;
21643;SDS011;10983;51.982;9.226;2024-01-15T08:23:09;4.80;;;2.85;;
21643;SDS011;10983;51.982;9.226;2024-01-15T08:25:37;8.18;;;4.25;;
21643;SDS011;10983;51.982;9.226;2024-01-15T08:28:06;4.03;;;3.38;;
21643;SDS011;10983;51.982;9.226;2024-01-15T08:30:34;6.55;;;4.22;;
21643;SDS011;10983;51.982;9.226;2024-01-15T08:33:02;24.05;;;9.25;;
21643;SDS011;10983;51.982;9.226;2024-01-15T08:35:39;5.30;;;3.50;;
21643;SDS011;10983;51.982;9.226;2024-01-15T08:38:07;3.63;;;3.20;;
21643;SDS011;10983;51.982;9.226;2024-01-15T08:40:35;3.35;;;2.17;;
21643;SDS011;10983;51.982;9.226;2024-01-15T08:43:02;5.53;;;2.00;;
21643;SDS011;10983;51.982;9.226;2024-01-15T08:45:31;3.95;;;3.47;;
21643;SDS011;10983;51.982;9.226;2024-01-15T08:47:59;3.22;;;2.90;;
21643;SDS011;10983;51.982;9.226;2024-01-15T08:50:27;13.52;;;3.50;;
21643;SDS011;10983;51.982;9.226;2024-01-15T08:52:55;3.75;;;2.78;;
21643;SDS011;10983;51.982;9.226;2024-01-15T08:55:23;8.07;;;2.17;;
21643;SDS011;10983;51.982;9.226;2024-01-15T08:57:50;5.63;;;3.65;;
21643;SDS011;10983;51.982;9.226;2024-01-15T09:00:18;3.55;;;3.25;;
21643;SDS011;10983;51.982;9.226;2024-01-15T09:02:48;1.02;;;1.02;;
21643;SDS011;10983;51.982;9.226;2024-01-15T09:05:16;3.42;;;1.83;;
21643;SDS011;10983;51.982;9.226;2024-01-15T09:07:44;6.95;;;2.47;;
21643;SDS011;10983;51.982;9.226;2024-01-15T09:10:12;3.80;;;3.38;;
21643;SDS011;10983;51.982;9.226;2024-01-15T09:12:40;4.80;;;3.55;;
21643;SDS011;10983;51.982;9.226;2024-01-15T09:15:08;2.30;;;2.03;;
21643;SDS011;10983;51.982;9.226;2024-01-15T09:17:36;6.05;;;1.77;;
21643;SDS011;10983;51.982;9.226;2024-01-15T09:20:05;5.28;;;4.70;;
21643;SDS011;10983;51.982;9.226;2024-01-15T09:22:34;2.72;;;1.95;;
21643;SDS011;10983;51.982;9.226;2024-01-15T09:25:01;2.80;;;2.10;;
21643;SDS011;10983;51.982;9.226;2024-01-15T09:27:29;0.52;;;0.52;;
21643;SDS011;10983;51.982;9.226;2024-01-15T09:29:58;2.72;;;1.85;;
21643;SDS011;10983;51.982;9.226;2024-01-15T09:32:26;3.95;;;2.90;;
21643;SDS011;10983;51.982;9.226;2024-01-15T09:34:54;2.35;;;2.00;;
21643;SDS011;10983;51.982;9.226;2024-01-15T09:37:23;2.83;;;1.80;;
21643;SDS011;10983;51.982;9.226;2024-01-15T09:40:12;4.50;;;2.10;;
21643;SDS011;10983;51.982;9.226;2024-01-15T09:42:41;1.90;;;1.80;;
21643;SDS011;10983;51.982;9.226;2024-01-15T09:45:09;3.38;;;3.08;;
21643;SDS011;10983;51.982;9.226;2024-01-15T09:47:38;3.67;;;2.83;;
21643;SDS011;10983;51.982;9.226;2024-01-15T09:50:10;3.53;;;2.10;;
21643;SDS011;10983;51.982;9.226;2024-01-15T09:52:39;2.83;;;2.60;;
21643;SDS011;10983;51.982;9.226;2024-01-15T09:55:08;3.42;;;3.15;;
21643;SDS011;10983;51.982;9.226;2024-01-15T09:57:36;2.53;;;1.70;;
21643;SDS011;10983;51.982;9.226;2024-01-15T10:00:07;3.17;;;2.10;;
21643;SDS011;10983;51.982;9.226;2024-01-15T10:02:37;1.10;;;1.10;;
21643;SDS011;10983;51.982;9.226;2024-01-15T10:05:06;2.63;;;1.40;;
21643;SDS011;10983;51.982;9.226;2024-01-15T10:07:35;0.90;;;0.90;;
21643;SDS011;10983;51.982;9.226;2024-01-15T10:10:06;1.58;;;1.48;;
21643;SDS011;10983;51.982;9.226;2024-01-15T10:12:34;2.08;;;1.98;;
21643;SDS011;10983;51.982;9.226;2024-01-15T10:15:03;3.15;;;2.78;;
21643;SDS011;10983;51.982;9.226;2024-01-15T10:17:31;3.00;;;2.70;;
21643;SDS011;10983;51.982;9.226;2024-01-15T10:19:59;3.30;;;2.53;;
21643;SDS011;10983;51.982;9.226;2024-01-15T10:22:27;3.25;;;2.17;;
21643;SDS011;10983;51.982;9.226;2024-01-15T10:24:55;1.75;;;1.65;;
21643;SDS011;10983;51.982;9.226;2024-01-15T10:27:25;3.33;;;2.65;;
21643;SDS011;10983;51.982;9.226;2024-01-15T10:29:52;3.00;;;1.77;;
21643;SDS011;10983;51.982;9.226;2024-01-15T10:32:20;0.73;;;0.73;;
21643;SDS011;10983;51.982;9.226;2024-01-15T10:34:50;1.45;;;1.38;;
21643;SDS011;10983;51.982;9.226;2024-01-15T10:37:20;8.90;;;4.05;;
21643;SDS011;10983;51.982;9.226;2024-01-15T10:39:50;7.20;;;4.40;;
21643;SDS011;10983;51.982;9.226;2024-01-15T10:42:18;2.90;;;2.72;;
21643;SDS011;10983;51.982;9.226;2024-01-15T10:44:47;3.50;;;3.17;;
21643;SDS011;10983;51.982;9.226;2024-01-15T10:47:15;3.35;;;2.70;;
21643;SDS011;10983;51.982;9.226;2024-01-15T10:49:43;1.65;;;1.55;;
21643;SDS011;10983;51.982;9.226;2024-01-15T10:52:11;4.18;;;2.30;;
21643;SDS011;10983;51.982;9.226;2024-01-15T10:54:39;5.55;;;2.75;;
21643;SDS011;10983;51.982;9.226;2024-01-15T10:57:07;3.78;;;2.28;;
21643;SDS011;10983;51.982;9.226;2024-01-15T10:59:36;1.23;;;1.13;;
21643;SDS011;10983;51.982;9.226;2024-01-15T11:02:05;4.97;;;3.65;;
21643;SDS011;10983;51.982;9.226;2024-01-15T11:04:33;3.10;;;2.80;;
21643;SDS011;10983;51.982;9.226;2024-01-15T11:07:01;4.35;;;2.72;;
21643;SDS011;10983;51.982;9.226;2024-01-15T11:09:30;5.05;;;2.03;;
21643;SDS011;10983;51.982;9.226;2024-01-15T11:12:06;9.40;;;2.70;;
21643;SDS011;10983;51.982;9.226;2024-01-15T11:14:37;3.97;;;3.22;;
21643;SDS011;10983;51.982;9.226;2024-01-15T11:17:07;5.35;;;2.53;;
21643;SDS011;10983;51.982;9.226;2024-01-15T11:19:36;2.70;;;1.55;;
21643;SDS011;10983;51.982;9.226;2024-01-15T11:22:07;1.95;;;1.85;;
21643;SDS011;10983;51.982;9.226;2024-01-15T11:24:36;9.15;;;2.38;;
21643;SDS011;10983;51.982;9.226;2024-01-15T11:27:05;4.03;;;1.58;;
21643;SDS011;10983;51.982;9.226;2024-01-15T11:29:33;1.88;;;1.77;;
21643;SDS011;10983;51.982;9.226;2024-01-15T11:32:03;2.13;;;2.03;;
21643;SDS011;10983;51.982;9.226;2024-01-15T11:34:55;1.20;;;1.10;;
21643;SDS011;10983;51.982;9.226;2024-01-15T11:37:29;3.30;;;1.90;;
21643;SDS011;10983;51.982;9.226;2024-01-15T11:40:38;2.08;;;1.98;;
21643;SDS011;10983;51.982;9.226;2024-01-15T11:43:09;5.32;;;2.97;;
21643;SDS011;10983;51.982;9.226;2024-01-15T11:45:36;2.30;;;2.15;;
21643;SDS011;10983;51.982;9.226;2024-01-15T11:48:14;1.55;;;1.45;;
21643;SDS011;10983;51.982;9.226;2024-01-15T11:50:46;1.95;;;0.88;;
21643;SDS011;10983;51.982;9.226;2024-01-15T11:53:17;1.00;;;1.00;;
21643;SDS011;10983;51.982;9.226;2024-01-15T11:55:48;14.10;;;3.47;;
21643;SDS011;10983;51.982;9.226;2024-01-15T11:58:18;3.92;;;2.80;;
21643;SDS011;10983;51.982;9.226;2024-01-15T12:00:47;6.30;;;2.50;;
21643;SDS011;10983;51.982;9.226;2024-01-15T12:03:16;2.97;;;1.63;;
21643;SDS011;10983;51.982;9.226;2024-01-15T12:05:43;5.43;;;3.53;;
21643;SDS011;10983;51.982;9.226;2024-01-15T12:08:12;0.65;;;0.65;;
21643;SDS011;10983;51.982;9.226;2024-01-15T12:10:41;4.90;;;2.53;;
21643;SDS011;10983;51.982;9.226;2024-01-15T12:13:09;1.75;;;1.65;;
21643;SDS011;10983;51.982;9.226;2024-01-15T12:15:39;3.33;;;1.80;;
21643;SDS011;10983;51.982;9.226;2024-01-15T12:18:09;2.13;;;1.85;;
21643;SDS011;10983;51.982;9.226;2024-01-15T12:20:39;1.75;;;1.40;;
21643;SDS011;10983;51.982;9.226;2024-01-15T12:23:10;8.48;;;2.70;;
21643;SDS011;10983;51.982;9.226;2024-01-15T12:25:41;0.63;;;0.63;;
21643;SDS011;10983;51.982;9.226;2024-01-15T12:28:11;1.48;;;1.38;;
21643;SDS011;10983;51.982;9.226;2024-01-15T12:30:38;1.70;;;1.52;;
21643;SDS011;10983;51.982;9.226;2024-01-15T12:33:07;1.95;;;1.63;;
21643;SDS011;10983;51.982;9.226;2024-01-15T12:35:36;1.42;;;1.33;;
21643;SDS011;10983;51.982;9.226;2024-01-15T12:38:04;4.45;;;1.63;;
21643;SDS011;10983;51.982;9.226;2024-01-15T12:40:32;1.70;;;1.50;;
21643;SDS011;10983;51.982;9.226;2024-01-15T12:43:04;1.02;;;0.80;;
21643;SDS011;10983;51.982;9.226;2024-01-15T12:45:32;1.60;;;1.48;;
21643;SDS011;10983;51.982;9.226;2024-01-15T12:48:01;9.30;;;2.10;;
21643;SDS011;10983;51.982;9.226;2024-01-15T12:50:30;2.08;;;1.90;;
21643;SDS011;10983;51.982;9.226;2024-01-15T12:52:57;2.63;;;1.42;;
21643;SDS011;10983;51.982;9.226;2024-01-15T12:55:26;2.88;;;1.95;;
21643;SDS011;10983;51.982;9.226;2024-01-15T12:57:53;4.47;;;2.15;;
21643;SDS011;10983;51.982;9.226;2024-01-15T13:00:23;2.25;;;1.73;;
21643;SDS011;10983;51.982;9.226;2024-01-15T13:02:52;2.63;;;2.08;;
21643;SDS011;10983;51.982;9.226;2024-01-15T13:05:20;1.95;;;1.83;;
21643;SDS011;10983;51.982;9.226;2024-01-15T13:07:50;6.45;;;3.35;;
21643;SDS011;10983;51.982;9.226;2024-01-15T13:10:17;1.30;;;1.20;;
21643;SDS011;10983;51.982;9.226;2024-01-15T13:12:45;8.10;;;2.38;;
21643;SDS011;10983;51.982;9.226;2024-01-15T13:15:13;2.65;;;1.70;;
21643;SDS011;10983;51.982;9.226;2024-01-15T13:17:43;5.40;;;1.20;;
21643;SDS011;10983;51.982;9.226;2024-01-15T13:20:12;1.30;;;1.25;;
21643;SDS011;10983;51.982;9.226;2024-01-15T13:22:41;8.10;;;1.45;;
21643;SDS011;10983;51.982;9.226;2024-01-15T13:25:10;3.58;;;2.15;;
21643;SDS011;10983;51.982;9.226;2024-01-15T13:27:38;4.03;;;1.40;;
21643;SDS011;10983;51.982;9.226;2024-01-15T13:30:08;0.85;;;0.80;;
21643;SDS011;10983;51.982;9.226;2024-01-15T13:32:38;1.33;;;1.27;;
21643;SDS011;10983;51.982;9.226;2024-01-15T13:35:08;3.10;;;1.80;;
21643;SDS011;10983;51.982;9.226;2024-01-15T13:37:39;2.25;;;1.48;;
21643;SDS011;10983;51.982;9.226;2024-01-15T13:40:08;2.60;;;1.48;;
21643;SDS011;10983;51.982;9.226;2024-01-15T13:42:42;2.05;;;1.67;;
21643;SDS011;10983;51.982;9.226;2024-01-15T13:45:10;2.88;;;1.67;;
21643;SDS011;10983;51.982;9.226;2024-01-15T13:47:40;1.08;;;1.08;;
21643;SDS011;10983;51.982;9.226;2024-01-15T13:50:11;1.45;;;1.35;;
21643;SDS011;10983;51.982;9.226;2024-01-15T13:52:40;3.60;;;1.63;;
21643;SDS011;10983;51.982;9.226;2024-01-15T13:55:08;1.60;;;1.50;;
21643;SDS011;10983;51.982;9.226;2024-01-15T13:57:36;10.25;;;2.45;;
21643;SDS011;10983;51.982;9.226;2024-01-15T14:00:04;0.80;;;0.73;;
21643;SDS011;10983;51.982;9.226;2024-01-15T14:02:39;1.85;;;1.73;;
21643;SDS011;10983;51.982;9.226;2024-01-15T14:05:06;1.98;;;1.58;;
21643;SDS011;10983;51.982;9.226;2024-01-15T14:07:35;5.03;;;1.30;;
21643;SDS011;10983;51.982;9.226;2024-01-15T14:10:03;1.65;;;1.52;;
21643;SDS011;10983;51.982;9.226;2024-01-15T14:12:32;3.85;;;1.80;;
21643;SDS011;10983;51.982;9.226;2024-01-15T14:15:00;0.90;;;0.90;;
21643;SDS011;10983;51.982;9.226;2024-01-15T14:17:32;24.13;;;3.67;;
21643;SDS011;10983;51.982;9.226;2024-01-15T14:19:59;6.28;;;1.80;;
21643;SDS011;10983;51.982;9.226;2024-01-15T14:22:27;2.65;;;1.23;;
21643;SDS011;10983;51.982;9.226;2024-01-15T14:24:56;4.50;;;2.65;;
21643;SDS011;10983;51.982;9.226;2024-01-15T14:27:24;1.42;;;1.33;;
21643;SDS011;10983;51.982;9.226;2024-01-15T14:29:51;1.50;;;1.40;;
21643;SDS011;10983;51.982;9.226;2024-01-15T14:32:20;4.68;;;1.58;;
21643;SDS011;10983;51.982;9.226;2024-01-15T14:34:48;2.70;;;1.50;;
21643;SDS011;10983;51.982;9.226;2024-01-15T14:37:15;4.28;;;1.80;;
21643;SDS011;10983;51.982;9.226;2024-01-15T14:39:43;1.98;;;1.80;;
21643;SDS011;10983;51.982;9.226;2024-01-15T14:42:12;4.82;;;2.00;;
21643;SDS011;10983;51.982;9.226;2024-01-15T14:44:39;1.30;;;1.20;;
21643;SDS011;10983;51.982;9.226;2024-01-15T14:47:07;7.72;;;2.10;;
21643;SDS011;10983;51.982;9.226;2024-01-15T14:49:35;0.93;;;0.93;;
21643;SDS011;10983;51.982;9.226;2024-01-15T14:52:02;3.40;;;1.25;;
21643;SDS011;10983;51.982;9.226;2024-01-15T14:54:30;3.67;;;1.33;;
21643;SDS011;10983;51.982;9.226;2024-01-15T14:56:58;2.20;;;1.75;;